sensor_id;sensor_type;location;lat;lon;timestamp;P1;durP1;ratioP1;P2;durP2;ratioP2
29200;SDS011;16244;51.956;12.980;2024-01-15T00:00:10;6.50;;;5.40;;
29200;SDS011;16244;51.956;12.980;2024-01-15T00:02:39;8.20;;;5.87;;
29200;SDS011;16244;51.956;12.980;2024-01-15T00:05:06;13.83;;;6.60;;
29200;SDS011;16244;51.956;12.980;2024-01-15T00:07:34;10.17;;;6.77;;
29200;SDS011;16244;51.956;12.980;2024-01-15T00:10:04;7.93;;;6.50;;
29200;SDS011;16244;51.956;12.980;2024-01-15T00:12:31;6.10;;;5.50;;
29200;SDS011;16244;51.956;12.980;2024-01-15T00:14:59;8.00;;;4.97;;
29200;SDS011;16244;51.956;12.980;2024-01-15T00:17:26;6.27;;;5.40;;
29200;SDS011;16244;51.956;12.980;2024-01-15T00:19:54;8.47;;;5.53;;
29200;SDS011;16244;51.956;12.980;2024-01-15T00:22:21;8.27;;;6.20;;
29200;SDS011;16244;51.956;12.980;2024-01-15T00:24:50;6.90;;;6.20;;
29200;SDS011;16244;51.956;12.980;2024-01-15T00:27:19;15.70;;;6.90;;
29200;SDS011;16244;51.956;12.980;2024-01-15T00:29:46;14.97;;;6.43;;
29200;SDS011;16244;51.956;12.980;2024-01-15T00:32:14;9.80;;;6.27;;
29200;SDS011;16244;51.956;12.980;2024-01-15T00:34:41;7.73;;;5.43;;
29200;SDS011;16244;51.956;12.980;2024-01-15T00:37:08;6.60;;;5.97;;
29200;SDS011;16244;51.956;12.980;2024-01-15T00:39:36;9.57;;;6.40;;
29200;SDS011;16244;51.956;12.980;2024-01-15T00:42:03;8.53;;;5.67;;
29200;SDS011;16244;51.956;12.980;2024-01-15T00:44:32;14.73;;;5.70;;
29200;SDS011;16244;51.956;12.980;2024-01-15T00:47:00;7.07;;;5.40;;
29200;SDS011;16244;51.956;12.980;2024-01-15T00:49:28;13.37;;;6.87;;
29200;SDS011;16244;51.956;12.980;2024-01-15T00:51:55;8.80;;;6.10;;
29200;SDS011;16244;51.956;12.980;2024-01-15T00:54:23;8.90;;;6.40;;
29200;SDS011;16244;51.956;12.980;2024-01-15T00:56:50;11.47;;;5.80;;
29200;SDS011;16244;51.956;12.980;2024-01-15T00:59:18;10.33;;;6.00;;
29200;SDS011;16244;51.956;12.980;2024-01-15T01:01:47;10.30;;;6.13;;
29200;SDS011;16244;51.956;12.980;2024-01-15T01:04:15;12.60;;;6.70;;
29200;SDS011;16244;51.956;12.980;2024-01-15T01:06:42;14.07;;;7.37;;
29200;SDS011;16244;51.956;12.980;2024-01-15T01:09:10;6.83;;;5.33;;
29200;SDS011;16244;51.956;12.980;2024-01-15T01:11:37;6.77;;;5.77;;
29200;SDS011;16244;51.956;12.980;2024-01-15T01:14:05;6.73;;;5.67;;
29200;SDS011;16244;51.956;12.980;2024-01-15T01:16:32;14.63;;;6.80;;
29200;SDS011;16244;51.956;12.980;2024-01-15T01:19:06;12.13;;;6.27;;
29200;SDS011;16244;51.956;12.980;2024-01-15T01:21:33;10.60;;;7.27;;
29200;SDS011;16244;51.956;12.980;2024-01-15T01:24:01;10.93;;;6.33;;
29200;SDS011;16244;51.956;12.980;2024-01-15T01:26:28;7.23;;;6.63;;
29200;SDS011;16244;51.956;12.980;2024-01-15T01:28:56;10.17;;;6.47;;
29200;SDS011;16244;51.956;12.980;2024-01-15T01:31:23;10.07;;;6.97;;
29200;SDS011;16244;51.956;12.980;2024-01-15T01:33:51;6.93;;;6.30;;
29200;SDS011;16244;51.956;12.980;2024-01-15T01:36:20;6.27;;;5.50;;
29200;SDS011;16244;51.956;12.980;2024-01-15T01:38:47;8.00;;;6.90;;
29200;SDS011;16244;51.956;12.980;2024-01-15T01:41:14;14.20;;;6.60;;
29200;SDS011;16244;51.956;12.980;2024-01-15T01:43:43;8.30;;;6.10;;
29200;SDS011;16244;51.956;12.980;2024-01-15T01:46:10;8.80;;;6.50;;
29200;SDS011;16244;51.956;12.980;2024-01-15T01:48:38;11.10;;;6.80;;
29200;SDS011;16244;51.956;12.980;2024-01-15T01:51:06;11.73;;;6.10;;
29200;SDS011;16244;51.956;12.980;2024-01-15T01:53:41;6.10;;;5.50;;
29200;SDS011;16244;51.956;12.980;2024-01-15T01:56:16;9.00;;;6.03;;
29200;SDS011;16244;51.956;12.980;2024-01-15T01:58:44;10.50;;;6.80;;
29200;SDS011;16244;51.956;12.980;2024-01-15T02:01:12;9.73;;;7.30;;
29200;SDS011;16244;51.956;12.980;2024-01-15T02:03:39;13.87;;;7.00;;
29200;SDS011;16244;51.956;12.980;2024-01-15T02:06:07;6.10;;;5.67;;
29200;SDS011;16244;51.956;12.980;2024-01-15T02:08:35;7.47;;;6.10;;
29200;SDS011;16244;51.956;12.980;2024-01-15T02:11:04;11.80;;;7.17;;
29200;SDS011;16244;51.956;12.980;2024-01-15T02:13:32;9.50;;;7.07;;
29200;SDS011;16244;51.956;12.980;2024-01-15T02:16:00;9.47;;;7.00;;
29200;SDS011;16244;51.956;12.980;2024-01-15T02:18:28;11.60;;;7.33;;
29200;SDS011;16244;51.956;12.980;2024-01-15T02:20:55;12.17;;;6.70;;
29200;SDS011;16244;51.956;12.980;2024-01-15T02:23:24;14.13;;;8.13;;
29200;SDS011;16244;51.956;12.980;2024-01-15T02:25:51;11.40;;;7.03;;
29200;SDS011;16244;51.956;12.980;2024-01-15T02:28:19;8.17;;;6.80;;
29200;SDS011;16244;51.956;12.980;2024-01-15T02:30:47;12.17;;;7.73;;
29200;SDS011;16244;51.956;12.980;2024-01-15T02:33:14;11.30;;;6.63;;
29200;SDS011;16244;51.956;12.980;2024-01-15T02:35:41;13.13;;;6.30;;
29200;SDS011;16244;51.956;12.980;2024-01-15T02:38:09;11.07;;;7.57;;
29200;SDS011;16244;51.956;12.980;2024-01-15T02:40:38;10.40;;;7.43;;
29200;SDS011;16244;51.956;12.980;2024-01-15T02:43:05;8.10;;;6.20;;
29200;SDS011;16244;51.956;12.980;2024-01-15T02:45:33;8.73;;;7.00;;
29200;SDS011;16244;51.956;12.980;2024-01-15T02:48:00;9.90;;;6.87;;
29200;SDS011;16244;51.956;12.980;2024-01-15T02:50:28;10.83;;;6.67;;
29200;SDS011;16244;51.956;12.980;2024-01-15T02:52:55;7.57;;;6.07;;
29200;SDS011;16244;51.956;12.980;2024-01-15T02:55:23;11.90;;;6.83;;
29200;SDS011;16244;51.956;12.980;2024-01-15T02:57:52;8.77;;;6.63;;
29200;SDS011;16244;51.956;12.980;2024-01-15T03:00:20;5.37;;;4.90;;
29200;SDS011;16244;51.956;12.980;2024-01-15T03:02:49;10.63;;;6.57;;
29200;SDS011;16244;51.956;12.980;2024-01-15T03:05:17;8.63;;;5.90;;
29200;SDS011;16244;51.956;12.980;2024-01-15T03:07:46;16.83;;;6.97;;
29200;SDS011;16244;51.956;12.980;2024-01-15T03:10:13;8.77;;;6.53;;
29200;SDS011;16244;51.956;12.980;2024-01-15T03:12:41;7.70;;;5.90;;
29200;SDS011;16244;51.956;12.980;2024-01-15T03:15:09;7.20;;;6.23;;
29200;SDS011;16244;51.956;12.980;2024-01-15T03:17:37;6.10;;;4.50;;
29200;SDS011;16244;51.956;12.980;2024-01-15T03:20:05;8.63;;;5.67;;
29200;SDS011;16244;51.956;12.980;2024-01-15T03:22:33;10.93;;;6.10;;
29200;SDS011;16244;51.956;12.980;2024-01-15T03:25:00;17.17;;;8.07;;
29200;SDS011;16244;51.956;12.980;2024-01-15T03:27:28;10.27;;;6.87;;
29200;SDS011;16244;51.956;12.980;2024-01-15T03:29:55;6.67;;;6.03;;
29200;SDS011;16244;51.956;12.980;2024-01-15T03:32:24;7.40;;;6.43;;
29200;SDS011;16244;51.956;12.980;2024-01-15T03:34:51;7.07;;;6.10;;
29200;SDS011;16244;51.956;12.980;2024-01-15T03:37:19;9.70;;;6.20;;
29200;SDS011;16244;51.956;12.980;2024-01-15T03:39:46;8.93;;;5.60;;
29200;SDS011;16244;51.956;12.980;2024-01-15T03:42:14;11.37;;;5.60;;
29200;SDS011;16244;51.956;12.980;2024-01-15T03:44:41;6.97;;;5.73;;
29200;SDS011;16244;51.956;12.980;2024-01-15T03:47:09;7.50;;;5.63;;
29200;SDS011;16244;51.956;12.980;2024-01-15T03:49:38;10.60;;;6.57;;
29200;SDS011;16244;51.956;12.980;2024-01-15T03:52:05;10.87;;;7.30;;
29200;SDS011;16244;51.956;12.980;2024-01-15T03:54:33;10.90;;;7.10;;
29200;SDS011;16244;51.956;12.980;2024-01-15T03:57:00;15.80;;;7.30;;
29200;SDS011;16244;51.956;12.980;2024-01-15T03:59:28;10.37;;;6.10;;
29200;SDS011;16244;51.956;12.980;2024-01-15T04:01:55;12.67;;;7.27;;
29200;SDS011;16244;51.956;12.980;2024-01-15T04:04:23;8.13;;;4.83;;
29200;SDS011;16244;51.956;12.980;2024-01-15T04:06:51;10.40;;;6.27;;
29200;SDS011;16244;51.956;12.980;2024-01-15T04:09:19;13.07;;;7.03;;
29200;SDS011;16244;51.956;12.980;2024-01-15T04:11:46;13.70;;;6.27;;
29200;SDS011;16244;51.956;12.980;2024-01-15T04:14:14;8.57;;;6.40;;
29200;SDS011;16244;51.956;12.980;2024-01-15T04:16:41;7.50;;;5.10;;
29200;SDS011;16244;51.956;12.980;2024-01-15T04:19:09;7.87;;;6.03;;
29200;SDS011;16244;51.956;12.980;2024-01-15T04:21:36;5.83;;;5.17;;
29200;SDS011;16244;51.956;12.980;2024-01-15T04:24:05;7.37;;;5.60;;
29200;SDS011;16244;51.956;12.980;2024-01-15T04:26:33;6.70;;;4.40;;
29200;SDS011;16244;51.956;12.980;2024-01-15T04:29:00;7.10;;;5.50;;
29200;SDS011;16244;51.956;12.980;2024-01-15T04:31:28;12.43;;;5.00;;
29200;SDS011;16244;51.956;12.980;2024-01-15T04:33:55;5.00;;;4.40;;
29200;SDS011;16244;51.956;12.980;2024-01-15T04:36:23;6.30;;;5.30;;
29200;SDS011;16244;51.956;12.980;2024-01-15T04:38:50;5.10;;;4.70;;
29200;SDS011;16244;51.956;12.980;2024-01-15T04:41:19;4.27;;;3.97;;
29200;SDS011;16244;51.956;12.980;2024-01-15T04:43:46;4.73;;;4.13;;
29200;SDS011;16244;51.956;12.980;2024-01-15T04:46:14;5.07;;;4.57;;
29200;SDS011;16244;51.956;12.980;2024-01-15T04:48:41;5.90;;;5.17;;
29200;SDS011;16244;51.956;12.980;2024-01-15T04:51:09;5.60;;;3.33;;
29200;SDS011;16244;51.956;12.980;2024-01-15T04:53:36;3.60;;;3.40;;
29200;SDS011;16244;51.956;12.980;2024-01-15T04:56:04;7.77;;;4.43;;
29200;SDS011;16244;51.956;12.980;2024-01-15T04:58:33;4.40;;;3.50;;
29200;SDS011;16244;51.956;12.980;2024-01-15T05:01:00;4.13;;;3.83;;
29200;SDS011;16244;51.956;12.980;2024-01-15T05:03:28;4.30;;;3.67;;
29200;SDS011;16244;51.956;12.980;2024-01-15T05:05:55;4.53;;;3.10;;
29200;SDS011;16244;51.956;12.980;2024-01-15T05:08:23;5.47;;;4.70;;
29200;SDS011;16244;51.956;12.980;2024-01-15T05:10:50;3.17;;;2.93;;
29200;SDS011;16244;51.956;12.980;2024-01-15T05:13:17;2.73;;;2.63;;
29200;SDS011;16244;51.956;12.980;2024-01-15T05:15:46;3.60;;;3.40;;
29200;SDS011;16244;51.956;12.980;2024-01-15T05:18:14;3.87;;;3.53;;
29200;SDS011;16244;51.956;12.980;2024-01-15T05:20:41;3.17;;;3.00;;
29200;SDS011;16244;51.956;12.980;2024-01-15T05:23:09;4.80;;;3.83;;
29200;SDS011;16244;51.956;12.980;2024-01-15T05:25:36;4.10;;;3.40;;
29200;SDS011;16244;51.956;12.980;2024-01-15T05:28:04;4.57;;;3.50;;
29200;SDS011;16244;51.956;12.980;2024-01-15T05:30:32;7.23;;;5.00;;
29200;SDS011;16244;51.956;12.980;2024-01-15T05:33:01;3.53;;;3.20;;
29200;SDS011;16244;51.956;12.980;2024-01-15T05:35:29;6.90;;;4.97;;
29200;SDS011;16244;51.956;12.980;2024-01-15T05:37:56;12.47;;;4.77;;
29200;SDS011;16244;51.956;12.980;2024-01-15T05:40:24;4.80;;;3.90;;
29200;SDS011;16244;51.956;12.980;2024-01-15T05:42:51;5.57;;;3.93;;
29200;SDS011;16244;51.956;12.980;2024-01-15T05:45:19;3.47;;;3.27;;
29200;SDS011;16244;51.956;12.980;2024-01-15T05:47:46;5.37;;;3.90;;
29200;SDS011;16244;51.956;12.980;2024-01-15T05:50:15;4.17;;;3.90;;
29200;SDS011;16244;51.956;12.980;2024-01-15T05:52:42;7.30;;;3.63;;
29200;SDS011;16244;51.956;12.980;2024-01-15T05:55:10;5.20;;;3.70;;
29200;SDS011;16244;51.956;12.980;2024-01-15T05:57:37;4.10;;;3.60;;
29200;SDS011;16244;51.956;12.980;2024-01-15T06:00:05;3.70;;;3.10;;
29200;SDS011;16244;51.956;12.980;2024-01-15T06:02:34;2.90;;;2.80;;
29200;SDS011;16244;51.956;12.980;2024-01-15T06:05:02;5.50;;;3.03;;
29200;SDS011;16244;51.956;12.980;2024-01-15T06:07:31;4.00;;;3.57;;
29200;SDS011;16244;51.956;12.980;2024-01-15T06:09:58;3.47;;;3.30;;
29200;SDS011;16244;51.956;12.980;2024-01-15T06:12:26;4.17;;;3.83;;
29200;SDS011;16244;51.956;12.980;2024-01-15T06:14:54;4.83;;;3.30;;
29200;SDS011;16244;51.956;12.980;2024-01-15T06:17:22;4.20;;;3.07;;
29200;SDS011;16244;51.956;12.980;2024-01-15T06:19:49;4.23;;;3.13;;
29200;SDS011;16244;51.956;12.980;2024-01-15T06:22:17;5.20;;;4.10;;
29200;SDS011;16244;51.956;12.980;2024-01-15T06:24:46;3.83;;;3.30;;
29200;SDS011;16244;51.956;12.980;2024-01-15T06:27:14;4.57;;;2.97;;
29200;SDS011;16244;51.956;12.980;2024-01-15T06:29:44;4.50;;;3.60;;
29200;SDS011;16244;51.956;12.980;2024-01-15T06:32:13;3.67;;;3.43;;
29200;SDS011;16244;51.956;12.980;2024-01-15T06:34:40;3.77;;;3.47;;
29200;SDS011;16244;51.956;12.980;2024-01-15T06:37:08;3.03;;;2.73;;
29200;SDS011;16244;51.956;12.980;2024-01-15T06:39:35;3.57;;;3.37;;
29200;SDS011;16244;51.956;12.980;2024-01-15T06:42:05;10.50;;;3.47;;
29200;SDS011;16244;51.956;12.980;2024-01-15T06:44:32;2.20;;;2.10;;
29200;SDS011;16244;51.956;12.980;2024-01-15T06:47:00;2.53;;;2.43;;
29200;SDS011;16244;51.956;12.980;2024-01-15T06:49:28;3.53;;;3.33;;
29200;SDS011;16244;51.956;12.980;2024-01-15T06:51:56;2.53;;;2.10;;
29200;SDS011;16244;51.956;12.980;2024-01-15T06:54:23;3.10;;;2.80;;
29200;SDS011;16244;51.956;12.980;2024-01-15T06:56:52;2.60;;;2.40;;
29200;SDS011;16244;51.956;12.980;2024-01-15T06:59:21;3.00;;;2.83;;
29200;SDS011;16244;51.956;12.980;2024-01-15T07:01:48;2.73;;;2.60;;
29200;SDS011;16244;51.956;12.980;2024-01-15T07:04:15;3.73;;;2.70;;
29200;SDS011;16244;51.956;12.980;2024-01-15T07:06:43;2.53;;;2.43;;
29200;SDS011;16244;51.956;12.980;2024-01-15T07:09:11;2.60;;;2.37;;
29200;SDS011;16244;51.956;12.980;2024-01-15T07:11:41;2.30;;;2.30;;
29200;SDS011;16244;51.956;12.980;2024-01-15T07:14:11;2.73;;;2.23;;
29200;SDS011;16244;51.956;12.980;2024-01-15T07:16:40;3.03;;;2.63;;
29200;SDS011;16244;51.956;12.980;2024-01-15T07:19:07;2.73;;;2.50;;
29200;SDS011;16244;51.956;12.980;2024-01-15T07:21:35;4.63;;;2.33;;
29200;SDS011;16244;51.956;12.980;2024-01-15T07:24:02;4.90;;;2.60;;
29200;SDS011;16244;51.956;12.980;2024-01-15T07:26:30;2.40;;;2.30;;
29200;SDS011;16244;51.956;12.980;2024-01-15T07:28:58;2.73;;;2.53;;
29200;SDS011;16244;51.956;12.980;2024-01-15T07:31:26;3.00;;;2.77;;
29200;SDS011;16244;51.956;12.980;2024-01-15T07:33:55;1.70;;;1.60;;
29200;SDS011;16244;51.956;12.980;2024-01-15T07:36:22;9.30;;;2.57;;
29200;SDS011;16244;51.956;12.980;2024-01-15T07:38:50;2.47;;;2.37;;
29200;SDS011;16244;51.956;12.980;2024-01-15T07:41:17;3.13;;;2.30;;
29200;SDS011;16244;51.956;12.980;2024-01-15T07:43:45;2.50;;;2.30;;
29200;SDS011;16244;51.956;12.980;2024-01-15T07:46:12;4.00;;;1.93;;
29200;SDS011;16244;51.956;12.980;2024-01-15T07:48:40;2.00;;;2.00;;
29200;SDS011;16244;51.956;12.980;2024-01-15T07:51:08;4.73;;;3.07;;
29200;SDS011;16244;51.956;12.980;2024-01-15T07:53:36;3.50;;;3.13;;
29200;SDS011;16244;51.956;12.980;2024-01-15T07:56:03;7.17;;;3.20;;
29200;SDS011;16244;51.956;12.980;2024-01-15T07:58:31;4.03;;;3.07;;
29200;SDS011;16244;51.956;12.980;2024-01-15T08:00:58;2.33;;;2.10;;
29200;SDS011;16244;51.956;12.980;2024-01-15T08:03:26;4.17;;;3.70;;
29200;SDS011;16244;51.956;12.980;2024-01-15T08:05:53;9.00;;;2.10;;
29200;SDS011;16244;51.956;12.980;2024-01-15T08:08:24;3.43;;;1.77;;
29200;SDS011;16244;51.956;12.980;2024-01-15T08:10:52;2.00;;;1.90;;
29200;SDS011;16244;51.956;12.980;2024-01-15T08:13:19;2.37;;;2.17;;
29200;SDS011;16244;51.956;12.980;2024-01-15T08:15:47;2.07;;;2.07;;
29200;SDS011;16244;51.956;12.980;2024-01-15T08:18:16;2.30;;;2.20;;
29200;SDS011;16244;51.956;12.980;2024-01-15T08:20:43;2.67;;;2.50;;
29200;SDS011;16244;51.956;12.980;2024-01-15T08:23:11;3.60;;;2.20;;
29200;SDS011;16244;51.956;12.980;2024-01-15T08:25:39;5.10;;;1.70;;
29200;SDS011;16244;51.956;12.980;2024-01-15T08:28:07;6.13;;;3.10;;
29200;SDS011;16244;51.956;12.980;2024-01-15T08:30:35;2.40;;;2.30;;
29200;SDS011;16244;51.956;12.980;2024-01-15T08:33:02;1.97;;;1.87;;
29200;SDS011;16244;51.956;12.980;2024-01-15T08:35:40;2.30;;;2.30;;
29200;SDS011;16244;51.956;12.980;2024-01-15T08:38:07;3.00;;;2.60;;
29200;SDS011;16244;51.956;12.980;2024-01-15T08:40:35;2.33;;;2.23;;
29200;SDS011;16244;51.956;12.980;2024-01-15T08:43:04;6.37;;;2.50;;
29200;SDS011;16244;51.956;12.980;2024-01-15T08:45:32;2.37;;;2.17;;
29200;SDS011;16244;51.956;12.980;2024-01-15T08:48:00;2.40;;;2.27;;
29200;SDS011;16244;51.956;12.980;2024-01-15T08:50:28;3.70;;;2.40;;
29200;SDS011;16244;51.956;12.980;2024-01-15T08:52:56;2.10;;;2.00;;
29200;SDS011;16244;51.956;12.980;2024-01-15T08:55:23;1.83;;;1.83;;
29200;SDS011;16244;51.956;12.980;2024-01-15T08:57:51;1.70;;;1.60;;
29200;SDS011;16244;51.956;12.980;2024-01-15T09:00:48;2.23;;;2.13;;
29200;SDS011;16244;51.956;12.980;2024-01-15T09:03:17;2.83;;;2.63;;
29200;SDS011;16244;51.956;12.980;2024-01-15T09:05:45;2.40;;;1.83;;
29200;SDS011;16244;51.956;12.980;2024-01-15T09:08:12;1.23;;;1.23;;
29200;SDS011;16244;51.956;12.980;2024-01-15T09:10:40;2.00;;;1.53;;
29200;SDS011;16244;51.956;12.980;2024-01-15T09:13:07;2.30;;;1.57;;
29200;SDS011;16244;51.956;12.980;2024-01-15T09:15:37;3.10;;;2.80;;
29200;SDS011;16244;51.956;12.980;2024-01-15T09:18:06;3.23;;;2.07;;
29200;SDS011;16244;51.956;12.980;2024-01-15T09:20:34;2.60;;;2.40;;
29200;SDS011;16244;51.956;12.980;2024-01-15T09:23:01;3.50;;;1.77;;
29200;SDS011;16244;51.956;12.980;2024-01-15T09:25:29;2.03;;;1.50;;
29200;SDS011;16244;51.956;12.980;2024-01-15T09:30:52;2.53;;;1.93;;
29200;SDS011;16244;51.956;12.980;2024-01-15T09:33:26;1.60;;;1.50;;
29200;SDS011;16244;51.956;12.980;2024-01-15T09:35:53;5.77;;;1.70;;
29200;SDS011;16244;51.956;12.980;2024-01-15T09:38:21;1.70;;;1.60;;
29200;SDS011;16244;51.956;12.980;2024-01-15T09:40:50;1.63;;;1.53;;
29200;SDS011;16244;51.956;12.980;2024-01-15T09:43:18;1.30;;;1.30;;
29200;SDS011;16244;51.956;12.980;2024-01-15T09:45:46;4.43;;;1.80;;
29200;SDS011;16244;51.956;12.980;2024-01-15T09:48:15;1.37;;;1.37;;
29200;SDS011;16244;51.956;12.980;2024-01-15T09:50:45;2.50;;;1.10;;
29200;SDS011;16244;51.956;12.980;2024-01-15T09:53:13;2.60;;;1.30;;
29200;SDS011;16244;51.956;12.980;2024-01-15T09:55:42;1.30;;;1.20;;
29200;SDS011;16244;51.956;12.980;2024-01-15T09:58:09;1.80;;;1.70;;
29200;SDS011;16244;51.956;12.980;2024-01-15T10:00:38;2.30;;;1.40;;
29200;SDS011;16244;51.956;12.980;2024-01-15T10:03:07;2.13;;;2.03;;
29200;SDS011;16244;51.956;12.980;2024-01-15T10:05:36;2.93;;;1.60;;
29200;SDS011;16244;51.956;12.980;2024-01-15T10:08:05;1.00;;;1.00;;
29200;SDS011;16244;51.956;12.980;2024-01-15T10:10:33;2.20;;;1.07;;
29200;SDS011;16244;51.956;12.980;2024-01-15T10:13:04;2.00;;;1.90;;
29200;SDS011;16244;51.956;12.980;2024-01-15T10:15:33;2.67;;;1.57;;
29200;SDS011;16244;51.956;12.980;2024-01-15T10:18:02;1.47;;;1.47;;
29200;SDS011;16244;51.956;12.980;2024-01-15T10:20:31;2.20;;;2.10;;
29200;SDS011;16244;51.956;12.980;2024-01-15T10:22:59;1.40;;;1.37;;
29200;SDS011;16244;51.956;12.980;2024-01-15T10:25:28;2.67;;;2.47;;
29200;SDS011;16244;51.956;12.980;2024-01-15T10:28:01;2.37;;;2.17;;
29200;SDS011;16244;51.956;12.980;2024-01-15T10:30:30;1.30;;;1.27;;
29200;SDS011;16244;51.956;12.980;2024-01-15T10:32:59;1.60;;;1.53;;
29200;SDS011;16244;51.956;12.980;2024-01-15T10:35:28;1.37;;;1.37;;
29200;SDS011;16244;51.956;12.980;2024-01-15T10:37:56;8.47;;;2.03;;
29200;SDS011;16244;51.956;12.980;2024-01-15T10:40:24;2.40;;;0.90;;
29200;SDS011;16244;51.956;12.980;2024-01-15T10:42:53;2.57;;;1.77;;
29200;SDS011;16244;51.956;12.980;2024-01-15T10:45:21;2.23;;;1.77;;
29200;SDS011;16244;51.956;12.980;2024-01-15T10:47:49;5.77;;;2.97;;
29200;SDS011;16244;51.956;12.980;2024-01-15T10:50:17;1.90;;;1.90;;
29200;SDS011;16244;51.956;12.980;2024-01-15T10:52:45;3.53;;;1.83;;
29200;SDS011;16244;51.956;12.980;2024-01-15T10:55:13;4.60;;;2.40;;
29200;SDS011;16244;51.956;12.980;2024-01-15T10:57:40;1.80;;;1.70;;
29200;SDS011;16244;51.956;12.980;2024-01-15T11:00:15;5.60;;;2.10;;
29200;SDS011;16244;51.956;12.980;2024-01-15T11:02:43;1.23;;;1.13;;
29200;SDS011;16244;51.956;12.980;2024-01-15T11:05:11;2.07;;;1.97;;
29200;SDS011;16244;51.956;12.980;2024-01-15T11:07:39;0.93;;;0.93;;
29200;SDS011;16244;51.956;12.980;2024-01-15T11:10:08;1.03;;;0.80;;
29200;SDS011;16244;51.956;12.980;2024-01-15T11:13:42;1.17;;;1.13;;
29200;SDS011;16244;51.956;12.980;2024-01-15T11:16:57;2.10;;;1.17;;
29200;SDS011;16244;51.956;12.980;2024-01-15T11:19:26;1.30;;;0.83;;
29200;SDS011;16244;51.956;12.980;2024-01-15T11:22:03;0.60;;;0.60;;
29200;SDS011;16244;51.956;12.980;2024-01-15T11:24:36;0.80;;;0.80;;
29200;SDS011;16244;51.956;12.980;2024-01-15T11:27:06;0.80;;;0.80;;
29200;SDS011;16244;51.956;12.980;2024-01-15T11:29:35;0.83;;;0.80;;
29200;SDS011;16244;51.956;12.980;2024-01-15T11:32:05;2.50;;;1.13;;
29200;SDS011;16244;51.956;12.980;2024-01-15T11:34:55;0.90;;;0.90;;
29200;SDS011;16244;51.956;12.980;2024-01-15T11:37:25;6.80;;;0.97;;
29200;SDS011;16244;51.956;12.980;2024-01-15T11:39:53;1.40;;;1.40;;
29200;SDS011;16244;51.956;12.980;2024-01-15T11:42:22;0.77;;;0.77;;
29200;SDS011;16244;51.956;12.980;2024-01-15T11:44:50;0.80;;;0.80;;
29200;SDS011;16244;51.956;12.980;2024-01-15T11:47:24;0.90;;;0.90;;
29200;SDS011;16244;51.956;12.980;2024-01-15T11:50:32;0.80;;;0.80;;
29200;SDS011;16244;51.956;12.980;2024-01-15T11:53:01;1.10;;;0.70;;
29200;SDS011;16244;51.956;12.980;2024-01-15T11:55:33;1.63;;;1.53;;
29200;SDS011;16244;51.956;12.980;2024-01-15T11:58:02;0.83;;;0.83;;
29200;SDS011;16244;51.956;12.980;2024-01-15T12:00:34;0.90;;;0.70;;
29200;SDS011;16244;51.956;12.980;2024-01-15T12:03:07;0.70;;;0.70;;
29200;SDS011;16244;51.956;12.980;2024-01-15T12:05:36;1.60;;;1.00;;
29200;SDS011;16244;51.956;12.980;2024-01-15T12:08:04;0.70;;;0.70;;
29200;SDS011;16244;51.956;12.980;2024-01-15T12:10:36;1.20;;;1.20;;
29200;SDS011;16244;51.956;12.980;2024-01-15T12:13:09;0.70;;;0.70;;
29200;SDS011;16244;51.956;12.980;2024-01-15T12:15:37;1.13;;;1.13;;
29200;SDS011;16244;51.956;12.980;2024-01-15T12:18:08;3.77;;;0.90;;
29200;SDS011;16244;51.956;12.980;2024-01-15T12:20:37;2.93;;;0.83;;
29200;SDS011;16244;51.956;12.980;2024-01-15T12:23:05;1.20;;;0.97;;
29200;SDS011;16244;51.956;12.980;2024-01-15T12:25:33;2.50;;;0.90;;
29200;SDS011;16244;51.956;12.980;2024-01-15T12:28:01;0.80;;;0.80;;
29200;SDS011;16244;51.956;12.980;2024-01-15T12:30:29;1.23;;;1.23;;
29200;SDS011;16244;51.956;12.980;2024-01-15T12:32:58;0.80;;;0.80;;
29200;SDS011;16244;51.956;12.980;2024-01-15T12:35:35;1.23;;;1.23;;
29200;SDS011;16244;51.956;12.980;2024-01-15T12:38:15;1.10;;;1.00;;
29200;SDS011;16244;51.956;12.980;2024-01-15T12:40:45;2.30;;;1.70;;
29200;SDS011;16244;51.956;12.980;2024-01-15T12:43:13;1.47;;;1.47;;
29200;SDS011;16244;51.956;12.980;2024-01-15T12:45:40;0.93;;;0.90;;
29200;SDS011;16244;51.956;12.980;2024-01-15T12:48:09;1.67;;;1.53;;
29200;SDS011;16244;51.956;12.980;2024-01-15T12:50:38;5.17;;;1.70;;
29200;SDS011;16244;51.956;12.980;2024-01-15T12:53:25;1.90;;;1.80;;
29200;SDS011;16244;51.956;12.980;2024-01-15T12:55:53;5.90;;;1.63;;
29200;SDS011;16244;51.956;12.980;2024-01-15T12:58:20;2.50;;;1.90;;
29200;SDS011;16244;51.956;12.980;2024-01-15T13:00:50;0.80;;;0.80;;
29200;SDS011;16244;51.956;12.980;2024-01-15T13:03:18;2.10;;;1.03;;
29200;SDS011;16244;51.956;12.980;2024-01-15T13:05:47;1.03;;;1.03;;
29200;SDS011;16244;51.956;12.980;2024-01-15T13:08:14;2.80;;;1.00;;
29200;SDS011;16244;51.956;12.980;2024-01-15T13:10:42;2.30;;;1.10;;
29200;SDS011;16244;51.956;12.980;2024-01-15T13:13:10;1.70;;;0.90;;
29200;SDS011;16244;51.956;12.980;2024-01-15T13:15:37;5.90;;;0.80;;
29200;SDS011;16244;51.956;12.980;2024-01-15T13:18:05;7.17;;;1.20;;
29200;SDS011;16244;51.956;12.980;2024-01-15T13:20:33;0.90;;;0.90;;
29200;SDS011;16244;51.956;12.980;2024-01-15T13:23:04;1.37;;;0.80;;
29200;SDS011;16244;51.956;12.980;2024-01-15T13:25:32;0.80;;;0.80;;
29200;SDS011;16244;51.956;12.980;2024-01-15T13:28:01;4.83;;;0.60;;
29200;SDS011;16244;51.956;12.980;2024-01-15T13:30:32;0.80;;;0.63;;
29200;SDS011;16244;51.956;12.980;2024-01-15T13:32:59;2.70;;;0.70;;
29200;SDS011;16244;51.956;12.980;2024-01-15T13:35:30;0.60;;;0.60;;
29200;SDS011;16244;51.956;12.980;2024-01-15T13:37:57;5.37;;;0.90;;
29200;SDS011;16244;51.956;12.980;2024-01-15T13:40:26;0.87;;;0.87;;
29200;SDS011;16244;51.956;12.980;2024-01-15T13:42:54;1.53;;;0.90;;
29200;SDS011;16244;51.956;12.980;2024-01-15T13:45:21;3.70;;;1.23;;
29200;SDS011;16244;51.956;12.980;2024-01-15T13:47:49;2.60;;;0.87;;
29200;SDS011;16244;51.956;12.980;2024-01-15T13:50:17;3.30;;;0.70;;
29200;SDS011;16244;51.956;12.980;2024-01-15T13:52:45;1.53;;;0.53;;
29200;SDS011;16244;51.956;12.980;2024-01-15T13:55:13;4.43;;;0.60;;
29200;SDS011;16244;51.956;12.980;2024-01-15T13:57:42;1.70;;;0.60;;
29200;SDS011;16244;51.956;12.980;2024-01-15T14:00:37;4.57;;;0.90;;
29200;SDS011;16244;51.956;12.980;2024-01-15T14:03:33;0.87;;;0.87;;
29200;SDS011;16244;51.956;12.980;2024-01-15T14:06:00;0.57;;;0.57;;
29200;SDS011;16244;51.956;12.980;2024-01-15T14:08:29;1.33;;;0.60;;
29200;SDS011;16244;51.956;12.980;2024-01-15T14:10:56;2.53;;;0.60;;
29200;SDS011;16244;51.956;12.980;2024-01-15T14:13:25;2.93;;;1.47;;
29200;SDS011;16244;51.956;12.980;2024-01-15T14:15:53;3.13;;;0.60;;
29200;SDS011;16244;51.956;12.980;2024-01-15T14:18:21;1.83;;;0.50;;
29200;SDS011;16244;51.956;12.980;2024-01-15T14:20:49;2.70;;;0.70;;
29200;SDS011;16244;51.956;12.980;2024-01-15T14:23:16;0.93;;;0.63;;
29200;SDS011;16244;51.956;12.980;2024-01-15T14:25:45;0.67;;;0.53;;
29200;SDS011;16244;51.956;12.980;2024-01-15T14:36:07;0.93;;;0.93;;
29200;SDS011;16244;51.956;12.980;2024-01-15T14:39:03;2.20;;;0.50;;
29200;SDS011;16244;51.956;12.980;2024-01-15T14:41:58;1.57;;;0.47;;
29200;SDS011;16244;51.956;12.980;2024-01-15T14:44:25;1.80;;;0.50;;
29200;SDS011;16244;51.956;12.980;2024-01-15T14:46:54;2.10;;;0.40;;
29200;SDS011;16244;51.956;12.980;2024-01-15T14:49:21;1.80;;;0.40;;
29200;SDS011;16244;51.956;12.980;2024-01-15T14:51:51;2.70;;;0.70;;
29200;SDS011;16244;51.956;12.980;2024-01-15T14:54:18;1.50;;;1.40;;